sensor_id;sensor_type;location;lat;lon;timestamp;pressure;altitude;pressure_sealevel;temperature;humidity
19005;BME280;9635;52.078;8.648;2023-07-02T00:00:16;59372.97;;;-149.37;100.00
19005;BME280;9635;52.078;8.648;2023-07-02T00:05:21;59372.97;;;-149.37;100.00
19005;BME280;9635;52.078;8.648;2023-07-02T00:10:24;59372.97;;;-149.37;100.00
19005;BME280;9635;52.078;8.648;2023-07-02T00:15:28;59372.97;;;-149.37;100.00
19005;BME280;9635;52.078;8.648;2023-07-02T00:20:31;59372.97;;;-149.37;100.00
19005;BME280;9635;52.078;8.648;2023-07-02T00:25:36;59372.97;;;-149.37;100.00
19005;BME280;9635;52.078;8.648;2023-07-02T00:30:41;59372.97;;;-149.37;100.00
19005;BME280;9635;52.078;8.648;2023-07-02T00:35:46;59372.97;;;-149.37;100.00
19005;BME280;9635;52.078;8.648;2023-07-02T00:40:49;59372.97;;;-149.37;100.00
19005;BME280;9635;52.078;8.648;2023-07-02T00:45:53;59372.97;;;-149.37;100.00
19005;BME280;9635;52.078;8.648;2023-07-02T00:50:56;59372.97;;;-149.37;100.00
19005;BME280;9635;52.078;8.648;2023-07-02T00:55:59;59372.97;;;-149.37;100.00
19005;BME280;9635;52.078;8.648;2023-07-02T01:01:03;59372.97;;;-149.37;100.00
19005;BME280;9635;52.078;8.648;2023-07-02T01:06:06;59372.97;;;-149.37;100.00
19005;BME280;9635;52.078;8.648;2023-07-02T01:11:09;59372.97;;;-149.37;100.00
19005;BME280;9635;52.078;8.648;2023-07-02T01:16:14;59372.97;;;-149.37;100.00
19005;BME280;9635;52.078;8.648;2023-07-02T01:21:18;59372.97;;;-149.37;100.00
19005;BME280;9635;52.078;8.648;2023-07-02T01:26:22;59372.97;;;-149.37;100.00
19005;BME280;9635;52.078;8.648;2023-07-02T01:31:25;59372.97;;;-149.37;100.00
19005;BME280;9635;52.078;8.648;2023-07-02T01:36:29;59372.97;;;-149.37;100.00
19005;BME280;9635;52.078;8.648;2023-07-02T01:41:41;59372.97;;;-149.37;100.00
19005;BME280;9635;52.078;8.648;2023-07-02T01:46:45;59372.97;;;-149.37;100.00
19005;BME280;9635;52.078;8.648;2023-07-02T01:51:52;59372.97;;;-149.37;100.00
19005;BME280;9635;52.078;8.648;2023-07-02T01:56:55;59372.97;;;-149.37;100.00
19005;BME280;9635;52.078;8.648;2023-07-02T02:01:58;59372.97;;;-149.37;100.00
19005;BME280;9635;52.078;8.648;2023-07-02T02:07:03;59372.97;;;-149.37;100.00
19005;BME280;9635;52.078;8.648;2023-07-02T02:12:07;59372.97;;;-149.37;100.00
19005;BME280;9635;52.078;8.648;2023-07-02T02:17:10;59372.97;;;-149.37;100.00
19005;BME280;9635;52.078;8.648;2023-07-02T02:22:14;59372.97;;;-149.37;100.00
19005;BME280;9635;52.078;8.648;2023-07-02T02:27:17;59372.97;;;-149.37;100.00
19005;BME280;9635;52.078;8.648;2023-07-02T02:32:20;59372.97;;;-149.37;100.00
19005;BME280;9635;52.078;8.648;2023-07-02T02:37:25;59372.97;;;-149.37;100.00
19005;BME280;9635;52.078;8.648;2023-07-02T02:42:30;59372.97;;;-149.37;100.00
19005;BME280;9635;52.078;8.648;2023-07-02T02:47:33;59372.97;;;-149.37;100.00
19005;BME280;9635;52.078;8.648;2023-07-02T02:52:37;59372.97;;;-149.37;100.00
19005;BME280;9635;52.078;8.648;2023-07-02T02:57:40;59372.97;;;-149.37;100.00
19005;BME280;9635;52.078;8.648;2023-07-02T03:02:44;59372.97;;;-149.37;100.00
19005;BME280;9635;52.078;8.648;2023-07-02T03:07:50;59372.97;;;-149.37;100.00
19005;BME280;9635;52.078;8.648;2023-07-02T03:12:53;59372.97;;;-149.37;100.00
19005;BME280;9635;52.078;8.648;2023-07-02T03:17:56;59372.97;;;-149.37;100.00
19005;BME280;9635;52.078;8.648;2023-07-02T03:23:00;59372.97;;;-149.37;100.00
19005;BME280;9635;52.078;8.648;2023-07-02T03:28:03;59372.97;;;-149.37;100.00
19005;BME280;9635;52.078;8.648;2023-07-02T03:33:08;59372.97;;;-149.37;100.00
19005;BME280;9635;52.078;8.648;2023-07-02T03:38:12;59372.97;;;-149.37;100.00
19005;BME280;9635;52.078;8.648;2023-07-02T03:43:16;59372.97;;;-149.37;100.00
19005;BME280;9635;52.078;8.648;2023-07-02T03:48:19;59372.97;;;-149.37;100.00
19005;BME280;9635;52.078;8.648;2023-07-02T03:53:23;59372.97;;;-149.37;100.00
19005;BME280;9635;52.078;8.648;2023-07-02T03:58:26;59372.97;;;-149.37;100.00
19005;BME280;9635;52.078;8.648;2023-07-02T04:03:29;59372.97;;;-149.37;100.00
19005;BME280;9635;52.078;8.648;2023-07-02T04:08:33;59372.97;;;-149.37;100.00
19005;BME280;9635;52.078;8.648;2023-07-02T04:13:37;59372.97;;;-149.37;100.00
19005;BME280;9635;52.078;8.648;2023-07-02T04:18:40;59372.97;;;-149.37;100.00
19005;BME280;9635;52.078;8.648;2023-07-02T04:23:44;59372.97;;;-149.37;100.00
19005;BME280;9635;52.078;8.648;2023-07-02T04:28:47;59372.97;;;-149.37;100.00
19005;BME280;9635;52.078;8.648;2023-07-02T04:33:50;59372.97;;;-149.37;100.00
19005;BME280;9635;52.078;8.648;2023-07-02T04:38:55;59372.97;;;-149.37;100.00
19005;BME280;9635;52.078;8.648;2023-07-02T04:43:57;59372.97;;;-149.37;100.00
19005;BME280;9635;52.078;8.648;2023-07-02T04:49:00;59372.97;;;-149.37;100.00
19005;BME280;9635;52.078;8.648;2023-07-02T04:54:05;59372.97;;;-149.37;100.00
19005;BME280;9635;52.078;8.648;2023-07-02T04:59:07;59372.97;;;-149.37;100.00
19005;BME280;9635;52.078;8.648;2023-07-02T05:04:10;59372.97;;;-149.37;100.00
19005;BME280;9635;52.078;8.648;2023-07-02T05:09:15;59372.97;;;-149.37;100.00
19005;BME280;9635;52.078;8.648;2023-07-02T05:14:18;59372.97;;;-149.37;100.00
19005;BME280;9635;52.078;8.648;2023-07-02T05:19:21;59372.97;;;-149.37;100.00
19005;BME280;9635;52.078;8.648;2023-07-02T05:24:25;59372.97;;;-149.37;100.00
19005;BME280;9635;52.078;8.648;2023-07-02T05:29:28;59372.97;;;-149.37;100.00
19005;BME280;9635;52.078;8.648;2023-07-02T05:34:31;59372.97;;;-149.37;100.00
19005;BME280;9635;52.078;8.648;2023-07-02T05:39:35;59372.97;;;-149.37;100.00
19005;BME280;9635;52.078;8.648;2023-07-02T05:44:38;59372.97;;;-149.37;100.00
19005;BME280;9635;52.078;8.648;2023-07-02T05:49:41;59372.97;;;-149.37;100.00
19005;BME280;9635;52.078;8.648;2023-07-02T05:54:45;59372.97;;;-149.37;100.00
19005;BME280;9635;52.078;8.648;2023-07-02T05:59:48;59372.97;;;-149.37;100.00
19005;BME280;9635;52.078;8.648;2023-07-02T06:04:51;59372.97;;;-149.37;100.00
19005;BME280;9635;52.078;8.648;2023-07-02T06:09:55;59372.97;;;-149.37;100.00
19005;BME280;9635;52.078;8.648;2023-07-02T06:14:58;59372.97;;;-149.37;100.00
19005;BME280;9635;52.078;8.648;2023-07-02T06:20:02;59372.97;;;-149.37;100.00
19005;BME280;9635;52.078;8.648;2023-07-02T06:25:08;59372.97;;;-149.37;100.00
19005;BME280;9635;52.078;8.648;2023-07-02T06:30:11;59372.97;;;-149.37;100.00
19005;BME280;9635;52.078;8.648;2023-07-02T06:35:14;59372.97;;;-149.37;100.00
19005;BME280;9635;52.078;8.648;2023-07-02T06:40:19;59372.97;;;-149.37;100.00
19005;BME280;9635;52.078;8.648;2023-07-02T06:45:23;59372.97;;;-149.37;100.00
19005;BME280;9635;52.078;8.648;2023-07-02T06:50:26;59372.97;;;-149.37;100.00
19005;BME280;9635;52.078;8.648;2023-07-02T06:55:31;59372.97;;;-149.37;100.00
19005;BME280;9635;52.078;8.648;2023-07-02T07:00:34;59372.97;;;-149.37;100.00
19005;BME280;9635;52.078;8.648;2023-07-02T07:05:38;59372.97;;;-149.37;100.00
19005;BME280;9635;52.078;8.648;2023-07-02T07:10:42;59372.97;;;-149.37;100.00
19005;BME280;9635;52.078;8.648;2023-07-02T07:15:47;59372.97;;;-149.37;100.00
19005;BME280;9635;52.078;8.648;2023-07-02T07:20:50;59372.97;;;-149.37;100.00
19005;BME280;9635;52.078;8.648;2023-07-02T07:25:55;59372.97;;;-149.37;100.00
19005;BME280;9635;52.078;8.648;2023-07-02T07:30:58;59372.97;;;-149.37;100.00
19005;BME280;9635;52.078;8.648;2023-07-02T07:36:01;59372.97;;;-149.37;100.00
19005;BME280;9635;52.078;8.648;2023-07-02T07:41:05;59372.97;;;-149.37;100.00
19005;BME280;9635;52.078;8.648;2023-07-02T07:46:08;59372.97;;;-149.37;100.00
19005;BME280;9635;52.078;8.648;2023-07-02T07:51:11;59372.97;;;-149.37;100.00
19005;BME280;9635;52.078;8.648;2023-07-02T07:56:15;59372.97;;;-149.37;100.00
19005;BME280;9635;52.078;8.648;2023-07-02T08:01:18;59372.97;;;-149.37;100.00
19005;BME280;9635;52.078;8.648;2023-07-02T08:06:22;59372.97;;;-149.37;100.00
19005;BME280;9635;52.078;8.648;2023-07-02T08:11:26;59372.97;;;-149.37;100.00
19005;BME280;9635;52.078;8.648;2023-07-02T08:16:29;59372.97;;;-149.37;100.00
19005;BME280;9635;52.078;8.648;2023-07-02T08:21:32;59372.97;;;-149.37;100.00
19005;BME280;9635;52.078;8.648;2023-07-02T08:26:36;59372.97;;;-149.37;100.00
19005;BME280;9635;52.078;8.648;2023-07-02T08:31:40;59372.97;;;-149.37;100.00
19005;BME280;9635;52.078;8.648;2023-07-02T08:36:43;59372.97;;;-149.37;100.00
19005;BME280;9635;52.078;8.648;2023-07-02T08:41:48;59372.97;;;-149.37;100.00
19005;BME280;9635;52.078;8.648;2023-07-02T08:46:51;59372.97;;;-149.37;100.00
19005;BME280;9635;52.078;8.648;2023-07-02T08:51:57;59372.97;;;-149.37;100.00
19005;BME280;9635;52.078;8.648;2023-07-02T08:57:02;59372.97;;;-149.37;100.00
19005;BME280;9635;52.078;8.648;2023-07-02T09:02:06;59372.97;;;-149.37;100.00
19005;BME280;9635;52.078;8.648;2023-07-02T09:07:10;59372.97;;;-149.37;100.00
19005;BME280;9635;52.078;8.648;2023-07-02T09:12:25;59372.97;;;-149.37;100.00
19005;BME280;9635;52.078;8.648;2023-07-02T09:17:29;59372.97;;;-149.37;100.00
19005;BME280;9635;52.078;8.648;2023-07-02T09:22:33;59372.97;;;-149.37;100.00
19005;BME280;9635;52.078;8.648;2023-07-02T09:27:38;59372.97;;;-149.37;100.00
19005;BME280;9635;52.078;8.648;2023-07-02T09:32:41;59372.97;;;-149.37;100.00
19005;BME280;9635;52.078;8.648;2023-07-02T09:37:45;59372.97;;;-149.37;100.00
19005;BME280;9635;52.078;8.648;2023-07-02T09:42:52;59372.97;;;-149.37;100.00
19005;BME280;9635;52.078;8.648;2023-07-02T09:47:57;59372.97;;;-149.37;100.00
19005;BME280;9635;52.078;8.648;2023-07-02T09:53:01;59372.97;;;-149.37;100.00
19005;BME280;9635;52.078;8.648;2023-07-02T09:58:05;59372.97;;;-149.37;100.00
19005;BME280;9635;52.078;8.648;2023-07-02T10:03:08;59372.97;;;-149.37;100.00
19005;BME280;9635;52.078;8.648;2023-07-02T10:08:12;59372.97;;;-149.37;100.00
19005;BME280;9635;52.078;8.648;2023-07-02T10:13:26;59372.97;;;-149.37;100.00
19005;BME280;9635;52.078;8.648;2023-07-02T10:18:29;59372.97;;;-149.37;100.00
19005;BME280;9635;52.078;8.648;2023-07-02T10:23:33;59372.97;;;-149.37;100.00
19005;BME280;9635;52.078;8.648;2023-07-02T10:28:38;59372.97;;;-149.37;100.00
19005;BME280;9635;52.078;8.648;2023-07-02T10:33:43;59372.97;;;-149.37;100.00
19005;BME280;9635;52.078;8.648;2023-07-02T10:38:46;59372.97;;;-149.37;100.00
19005;BME280;9635;52.078;8.648;2023-07-02T10:43:51;59372.97;;;-149.37;100.00
19005;BME280;9635;52.078;8.648;2023-07-02T10:48:54;59372.97;;;-149.37;100.00
19005;BME280;9635;52.078;8.648;2023-07-02T10:53:57;59372.97;;;-149.37;100.00
19005;BME280;9635;52.078;8.648;2023-07-02T10:59:02;59372.97;;;-149.37;100.00
19005;BME280;9635;52.078;8.648;2023-07-02T11:04:05;59372.97;;;-149.37;100.00
19005;BME280;9635;52.078;8.648;2023-07-02T11:09:15;59372.97;;;-149.37;100.00
19005;BME280;9635;52.078;8.648;2023-07-02T11:14:31;59372.97;;;-149.37;100.00
19005;BME280;9635;52.078;8.648;2023-07-02T11:19:35;99757.34;;;18.39;42.43
19005;BME280;9635;52.078;8.648;2023-07-02T11:24:38;99764.25;;;19.14;40.84
19005;BME280;9635;52.078;8.648;2023-07-02T11:29:43;99762.44;;;18.27;42.60
19005;BME280;9635;52.078;8.648;2023-07-02T11:34:53;99753.41;;;18.26;44.48
19005;BME280;9635;52.078;8.648;2023-07-02T11:39:56;99744.56;;;20.31;40.97
19005;BME280;9635;52.078;8.648;2023-07-02T11:45:00;99750.22;;;19.38;40.51
19005;BME280;9635;52.078;8.648;2023-07-02T11:50:04;99759.16;;;19.82;41.84
19005;BME280;9635;52.078;8.648;2023-07-02T11:55:25;99763.78;;;18.89;41.80
19005;BME280;9635;52.078;8.648;2023-07-02T12:00:29;99761.88;;;18.17;43.22
19005;BME280;9635;52.078;8.648;2023-07-02T12:05:32;99765.09;;;18.93;42.89
19005;BME280;9635;52.078;8.648;2023-07-02T12:10:35;99777.00;;;19.91;41.58
19005;BME280;9635;52.078;8.648;2023-07-02T12:15:41;99753.03;;;20.49;41.44
19005;BME280;9635;52.078;8.648;2023-07-02T12:20:44;99771.28;;;18.65;42.83
19005;BME280;9635;52.078;8.648;2023-07-02T12:25:47;59372.97;;;-149.37;100.00
19005;BME280;9635;52.078;8.648;2023-07-02T12:30:51;59372.97;;;-149.37;100.00
19005;BME280;9635;52.078;8.648;2023-07-02T12:35:54;99771.44;;;21.68;39.18
19005;BME280;9635;52.078;8.648;2023-07-02T12:40:57;99758.44;;;21.17;39.89
19005;BME280;9635;52.078;8.648;2023-07-02T12:46:01;99771.16;;;20.77;37.77
19005;BME280;9635;52.078;8.648;2023-07-02T12:51:04;99756.09;;;21.74;37.11
19005;BME280;9635;52.078;8.648;2023-07-02T12:56:07;99771.25;;;21.43;37.92
19005;BME280;9635;52.078;8.648;2023-07-02T13:01:11;99796.28;;;21.54;37.80
19005;BME280;9635;52.078;8.648;2023-07-02T13:06:14;99764.25;;;22.66;36.05
19005;BME280;9635;52.078;8.648;2023-07-02T13:11:17;99765.59;;;21.12;37.77
19005;BME280;9635;52.078;8.648;2023-07-02T13:16:21;99785.75;;;21.84;36.50
19005;BME280;9635;52.078;8.648;2023-07-02T13:21:25;99781.69;;;22.20;35.43
19005;BME280;9635;52.078;8.648;2023-07-02T13:26:28;99790.16;;;21.65;34.92
19005;BME280;9635;52.078;8.648;2023-07-02T13:31:32;99779.75;;;20.74;35.15
19005;BME280;9635;52.078;8.648;2023-07-02T13:36:35;99791.25;;;19.86;37.69
19005;BME280;9635;52.078;8.648;2023-07-02T13:41:38;99794.56;;;20.51;36.79
19005;BME280;9635;52.078;8.648;2023-07-02T13:46:43;99790.34;;;21.10;36.45
19005;BME280;9635;52.078;8.648;2023-07-02T13:51:47;99798.56;;;21.70;36.57
19005;BME280;9635;52.078;8.648;2023-07-02T13:56:51;99800.06;;;21.59;36.36
19005;BME280;9635;52.078;8.648;2023-07-02T14:01:55;99796.25;;;21.20;36.95
19005;BME280;9635;52.078;8.648;2023-07-02T14:06:59;99790.56;;;21.88;36.17
19005;BME280;9635;52.078;8.648;2023-07-02T14:12:02;99790.75;;;20.46;39.11
19005;BME280;9635;52.078;8.648;2023-07-02T14:17:06;99800.06;;;20.65;38.56
19005;BME280;9635;52.078;8.648;2023-07-02T14:22:09;99794.28;;;20.88;37.79
19005;BME280;9635;52.078;8.648;2023-07-02T14:27:12;99798.06;;;20.04;38.64
19005;BME280;9635;52.078;8.648;2023-07-02T14:32:16;99796.50;;;20.23;39.58
19005;BME280;9635;52.078;8.648;2023-07-02T14:37:19;99799.88;;;20.73;38.69
19005;BME280;9635;52.078;8.648;2023-07-02T14:42:22;99813.03;;;20.15;39.02
19005;BME280;9635;52.078;8.648;2023-07-02T14:47:26;99792.16;;;19.22;40.64
19005;BME280;9635;52.078;8.648;2023-07-02T14:52:29;99793.53;;;20.59;39.41
19005;BME280;9635;52.078;8.648;2023-07-02T14:57:32;99780.09;;;21.26;38.67
19005;BME280;9635;52.078;8.648;2023-07-02T15:02:36;99780.94;;;21.46;38.41
19005;BME280;9635;52.078;8.648;2023-07-02T15:07:39;99781.72;;;20.45;39.65
19005;BME280;9635;52.078;8.648;2023-07-02T15:12:42;99796.47;;;21.26;38.98
19005;BME280;9635;52.078;8.648;2023-07-02T15:17:47;99787.84;;;21.15;37.82
19005;BME280;9635;52.078;8.648;2023-07-02T15:22:50;99775.88;;;21.76;37.42
19005;BME280;9635;52.078;8.648;2023-07-02T15:27:53;99763.69;;;21.52;37.81
19005;BME280;9635;52.078;8.648;2023-07-02T15:32:57;99774.19;;;20.41;40.02
19005;BME280;9635;52.078;8.648;2023-07-02T15:38:00;99767.22;;;21.06;38.25
19005;BME280;9635;52.078;8.648;2023-07-02T15:43:02;99789.53;;;21.10;38.32
19005;BME280;9635;52.078;8.648;2023-07-02T15:48:07;99788.91;;;20.11;39.98
19005;BME280;9635;52.078;8.648;2023-07-02T15:53:10;99799.19;;;21.85;37.49
19005;BME280;9635;52.078;8.648;2023-07-02T15:58:13;99779.22;;;21.65;37.75
19005;BME280;9635;52.078;8.648;2023-07-02T16:03:17;99774.94;;;20.28;39.21
19005;BME280;9635;52.078;8.648;2023-07-02T16:08:24;99789.22;;;20.91;38.48
19005;BME280;9635;52.078;8.648;2023-07-02T16:13:27;99784.06;;;21.89;36.44
19005;BME280;9635;52.078;8.648;2023-07-02T16:18:32;99780.28;;;21.17;37.26
19005;BME280;9635;52.078;8.648;2023-07-02T16:23:35;99777.34;;;21.12;37.23
19005;BME280;9635;52.078;8.648;2023-07-02T16:28:38;99792.03;;;22.11;36.37
19005;BME280;9635;52.078;8.648;2023-07-02T16:33:43;99783.53;;;22.32;36.46
19005;BME280;9635;52.078;8.648;2023-07-02T16:38:45;99806.44;;;20.85;37.26
19005;BME280;9635;52.078;8.648;2023-07-02T16:43:50;99775.25;;;23.79;33.20
19005;BME280;9635;52.078;8.648;2023-07-02T16:48:54;99788.56;;;24.19;32.60
19005;BME280;9635;52.078;8.648;2023-07-02T16:53:57;99781.31;;;22.99;35.29
19005;BME280;9635;52.078;8.648;2023-07-02T16:59:00;99775.38;;;26.07;31.40
19005;BME280;9635;52.078;8.648;2023-07-02T17:04:05;99776.41;;;25.12;31.70
19005;BME280;9635;52.078;8.648;2023-07-02T17:09:20;99785.72;;;21.04;37.09
19005;BME280;9635;52.078;8.648;2023-07-02T17:14:24;99791.19;;;21.31;35.74
19005;BME280;9635;52.078;8.648;2023-07-02T17:19:31;99785.22;;;19.41;39.39
19005;BME280;9635;52.078;8.648;2023-07-02T17:24:38;99794.63;;;19.60;39.56
19005;BME280;9635;52.078;8.648;2023-07-02T17:29:42;99787.13;;;19.97;39.49
19005;BME280;9635;52.078;8.648;2023-07-02T17:34:46;99782.44;;;20.19;39.34
19005;BME280;9635;52.078;8.648;2023-07-02T17:39:49;99791.84;;;19.32;40.12
19005;BME280;9635;52.078;8.648;2023-07-02T17:44:52;99783.13;;;19.65;40.06
19005;BME280;9635;52.078;8.648;2023-07-02T17:50:00;99770.13;;;19.39;41.26
19005;BME280;9635;52.078;8.648;2023-07-02T17:55:05;99780.25;;;18.66;41.69
19005;BME280;9635;52.078;8.648;2023-07-02T18:00:09;99789.25;;;19.02;41.56
19005;BME280;9635;52.078;8.648;2023-07-02T18:05:14;99782.53;;;18.98;41.73
19005;BME280;9635;52.078;8.648;2023-07-02T18:10:17;99793.84;;;18.80;41.95
19005;BME280;9635;52.078;8.648;2023-07-02T18:15:20;99784.16;;;18.93;41.73
19005;BME280;9635;52.078;8.648;2023-07-02T18:20:25;99790.47;;;18.78;42.06
19005;BME280;9635;52.078;8.648;2023-07-02T18:25:30;99793.59;;;18.97;42.13
19005;BME280;9635;52.078;8.648;2023-07-02T18:30:33;99789.66;;;18.99;42.33
19005;BME280;9635;52.078;8.648;2023-07-02T18:35:40;99794.44;;;18.61;43.12
19005;BME280;9635;52.078;8.648;2023-07-02T18:40:44;99793.19;;;18.27;43.40
19005;BME280;9635;52.078;8.648;2023-07-02T18:45:50;99800.78;;;18.02;43.74
19005;BME280;9635;52.078;8.648;2023-07-02T18:50:54;99801.25;;;18.06;44.09
19005;BME280;9635;52.078;8.648;2023-07-02T18:55:59;99788.22;;;18.16;43.72
19005;BME280;9635;52.078;8.648;2023-07-02T19:01:06;99797.47;;;17.92;44.38
19005;BME280;9635;52.078;8.648;2023-07-02T19:06:11;99806.06;;;17.96;43.80
19005;BME280;9635;52.078;8.648;2023-07-02T19:11:14;99802.63;;;18.02;44.15
19005;BME280;9635;52.078;8.648;2023-07-02T19:16:17;99799.50;;;17.90;44.30
19005;BME280;9635;52.078;8.648;2023-07-02T19:21:22;99796.38;;;17.48;44.41
19005;BME280;9635;52.078;8.648;2023-07-02T19:26:25;99799.22;;;17.09;44.96
19005;BME280;9635;52.078;8.648;2023-07-02T19:31:30;99800.44;;;17.30;44.47
19005;BME280;9635;52.078;8.648;2023-07-02T19:36:34;99795.66;;;17.32;44.84
19005;BME280;9635;52.078;8.648;2023-07-02T19:41:37;99800.22;;;17.08;44.33
19005;BME280;9635;52.078;8.648;2023-07-02T19:46:40;99796.00;;;17.06;45.03
19005;BME280;9635;52.078;8.648;2023-07-02T19:51:46;99803.53;;;17.41;44.75
19005;BME280;9635;52.078;8.648;2023-07-02T19:56:51;99797.94;;;17.43;44.45
19005;BME280;9635;52.078;8.648;2023-07-02T20:01:54;99802.00;;;17.47;45.21
19005;BME280;9635;52.078;8.648;2023-07-02T20:06:58;99812.72;;;17.40;45.57
19005;BME280;9635;52.078;8.648;2023-07-02T20:12:03;99812.19;;;17.22;45.22
19005;BME280;9635;52.078;8.648;2023-07-02T20:17:06;99809.00;;;17.18;45.19
19005;BME280;9635;52.078;8.648;2023-07-02T20:22:11;99805.13;;;17.13;45.14
19005;BME280;9635;52.078;8.648;2023-07-02T20:27:14;99809.03;;;17.10;45.34
19005;BME280;9635;52.078;8.648;2023-07-02T20:32:20;99803.31;;;17.05;45.19
19005;BME280;9635;52.078;8.648;2023-07-02T20:37:25;99806.38;;;17.02;45.39
19005;BME280;9635;52.078;8.648;2023-07-02T20:42:32;99798.91;;;17.04;45.25
19005;BME280;9635;52.078;8.648;2023-07-02T20:47:35;99792.13;;;17.00;44.80
19005;BME280;9635;52.078;8.648;2023-07-02T20:52:40;99801.63;;;17.04;45.25
19005;BME280;9635;52.078;8.648;2023-07-02T20:57:43;99796.94;;;16.98;44.64
19005;BME280;9635;52.078;8.648;2023-07-02T21:02:46;99800.59;;;16.82;45.05
19005;BME280;9635;52.078;8.648;2023-07-02T21:07:50;99797.25;;;16.72;45.67
19005;BME280;9635;52.078;8.648;2023-07-02T21:12:53;99801.34;;;16.68;45.75
19005;BME280;9635;52.078;8.648;2023-07-02T21:17:56;99805.94;;;16.59;46.04
19005;BME280;9635;52.078;8.648;2023-07-02T21:23:00;99798.28;;;16.71;45.59
19005;BME280;9635;52.078;8.648;2023-07-02T21:28:03;99805.75;;;16.69;45.56
19005;BME280;9635;52.078;8.648;2023-07-02T21:33:06;99793.03;;;16.69;45.59
19005;BME280;9635;52.078;8.648;2023-07-02T21:38:11;99804.91;;;16.68;45.58
19005;BME280;9635;52.078;8.648;2023-07-02T21:43:14;99799.66;;;16.67;45.42
19005;BME280;9635;52.078;8.648;2023-07-02T21:48:16;99808.47;;;16.69;45.80
19005;BME280;9635;52.078;8.648;2023-07-02T21:53:21;99803.88;;;16.69;45.45
19005;BME280;9635;52.078;8.648;2023-07-02T21:58:24;99804.53;;;16.71;45.55
19005;BME280;9635;52.078;8.648;2023-07-02T22:03:27;99805.31;;;16.57;45.90
19005;BME280;9635;52.078;8.648;2023-07-02T22:08:31;99805.47;;;16.55;46.57
19005;BME280;9635;52.078;8.648;2023-07-02T22:13:34;99792.91;;;16.63;46.28
19005;BME280;9635;52.078;8.648;2023-07-02T22:18:37;99780.00;;;16.65;46.14
19005;BME280;9635;52.078;8.648;2023-07-02T22:23:43;99793.44;;;16.58;46.26
19005;BME280;9635;52.078;8.648;2023-07-02T22:28:48;99795.47;;;16.56;46.80
19005;BME280;9635;52.078;8.648;2023-07-02T22:33:50;99800.06;;;16.55;46.54
19005;BME280;9635;52.078;8.648;2023-07-02T22:38:55;99782.81;;;16.48;46.76
19005;BME280;9635;52.078;8.648;2023-07-02T22:43:58;99784.06;;;16.38;47.38
19005;BME280;9635;52.078;8.648;2023-07-02T22:49:00;99775.38;;;16.42;47.31
19005;BME280;9635;52.078;8.648;2023-07-02T22:54:08;99778.09;;;16.42;47.45
19005;BME280;9635;52.078;8.648;2023-07-02T22:59:10;99774.94;;;16.30;47.47
19005;BME280;9635;52.078;8.648;2023-07-02T23:04:13;99768.47;;;16.31;47.86
19005;BME280;9635;52.078;8.648;2023-07-02T23:09:18;99759.19;;;16.18;47.88
19005;BME280;9635;52.078;8.648;2023-07-02T23:14:21;99752.22;;;16.23;48.36
19005;BME280;9635;52.078;8.648;2023-07-02T23:19:24;99752.78;;;16.19;48.51
19005;BME280;9635;52.078;8.648;2023-07-02T23:24:28;99734.81;;;16.18;49.02
19005;BME280;9635;52.078;8.648;2023-07-02T23:29:32;99738.06;;;16.13;48.66
19005;BME280;9635;52.078;8.648;2023-07-02T23:34:35;99744.38;;;16.05;49.66
19005;BME280;9635;52.078;8.648;2023-07-02T23:39:42;99743.22;;;16.00;50.03
19005;BME280;9635;52.078;8.648;2023-07-02T23:44:45;99735.59;;;15.95;50.69
19005;BME280;9635;52.078;8.648;2023-07-02T23:49:48;99726.44;;;15.96;49.96
19005;BME280;9635;52.078;8.648;2023-07-02T23:54:52;99733.94;;;15.86;50.39
19005;BME280;9635;52.078;8.648;2023-07-02T23:59:55;99718.59;;;15.70;51.14
